createdAt,value
2022-08-17T00:00:43.078Z,30.52
2022-08-17T00:03:23.759Z,27.58
2022-08-17T00:05:58.891Z,32.03
2022-08-17T00:08:36.061Z,29.10
2022-08-17T00:11:13.417Z,27.75
2022-08-17T00:13:50.549Z,31.90
2022-08-17T00:16:57.474Z,25.33
2022-08-17T00:19:29.470Z,26.55
2022-08-17T00:22:34.308Z,25.77
2022-08-17T00:25:01.545Z,24.73
2022-08-17T00:27:37.960Z,28.38
2022-08-17T00:30:15.977Z,25.30
2022-08-17T00:33:14.245Z,23.50
2022-08-17T00:35:46.486Z,24.15
2022-08-17T00:38:20.825Z,33.55
2022-08-17T00:40:59.156Z,27.75
2022-08-17T00:43:39.171Z,25.42
2022-08-17T00:46:15.848Z,25.55
2022-08-17T00:48:49.742Z,25.48
2022-08-17T00:51:30.918Z,23.13
2022-08-17T00:54:11.122Z,24.05
2022-08-17T00:56:57.825Z,25.50
2022-08-17T00:59:38.277Z,27.23
2022-08-17T01:02:17.777Z,30.33
2022-08-17T01:04:54.559Z,23.80
2022-08-17T01:07:29.789Z,24.67
2022-08-17T01:10:05.822Z,22.00
2022-08-17T01:12:45.747Z,26.05
2022-08-17T01:15:21.623Z,23.45
2022-08-17T01:18:06.923Z,26.80
2022-08-17T01:20:48.570Z,23.52
2022-08-17T01:23:27.484Z,25.38
2022-08-17T01:29:02.251Z,24.58
2022-08-17T01:31:54.722Z,22.35
2022-08-17T01:34:42.650Z,26.05
2022-08-17T01:37:18.253Z,27.60
2022-08-17T01:39:57.750Z,26.08
2022-08-17T01:42:38.420Z,22.83
2022-08-17T01:45:20.372Z,27.77
2022-08-17T01:47:54.450Z,24.67
2022-08-17T01:50:31.621Z,22.63
2022-08-17T01:53:08.407Z,28.42
2022-08-17T01:55:48.207Z,24.35
2022-08-17T01:58:22.551Z,26.20
2022-08-17T02:01:00.649Z,24.27
2022-08-17T02:03:36.310Z,24.13
2022-08-17T02:06:27.970Z,28.95
2022-08-17T02:09:03.572Z,26.33
2022-08-17T02:11:41.483Z,26.55
2022-08-17T02:14:15.172Z,25.33
2022-08-17T02:16:54.414Z,25.33
2022-08-17T02:19:28.652Z,25.48
2022-08-17T02:22:04.190Z,24.83
2022-08-17T02:25:00.419Z,23.30
2022-08-17T02:27:35.440Z,25.60
2022-08-17T02:31:00.038Z,24.65
2022-08-17T02:33:10.203Z,29.23
2022-08-17T02:35:45.238Z,23.52
2022-08-17T02:38:19.494Z,23.10
2022-08-17T02:40:53.512Z,25.42
2022-08-17T02:43:28.683Z,22.25
2022-08-17T02:46:02.509Z,24.67
2022-08-17T02:48:36.517Z,27.55
2022-08-17T02:51:13.223Z,32.00
2022-08-17T02:53:48.721Z,25.40
2022-08-17T02:56:22.901Z,29.40
2022-08-17T02:58:59.968Z,23.75
2022-08-17T03:01:34.228Z,25.40
2022-08-17T03:04:08.683Z,25.17
2022-08-17T03:06:42.566Z,24.13
2022-08-17T03:09:22.407Z,24.25
2022-08-17T03:11:56.042Z,24.50
2022-08-17T03:14:36.995Z,27.88
2022-08-17T03:17:17.158Z,22.95
2022-08-17T03:19:54.547Z,22.67
2022-08-17T03:22:38.634Z,24.27
2022-08-17T03:25:14.702Z,27.83
2022-08-17T03:27:52.807Z,26.10
2022-08-17T03:30:29.128Z,25.63
2022-08-17T03:33:04.371Z,25.35
2022-08-17T03:35:43.019Z,26.40
2022-08-17T03:38:18.781Z,24.88
2022-08-17T03:40:57.256Z,26.95
2022-08-17T03:43:36.231Z,24.63
2022-08-17T03:46:34.406Z,22.77
2022-08-17T03:49:26.814Z,28.25
2022-08-17T03:52:17.022Z,25.92
2022-08-17T03:55:07.223Z,26.73
2022-08-17T03:57:41.573Z,24.80
2022-08-17T04:00:16.598Z,30.42
2022-08-17T04:02:53.959Z,23.80
2022-08-17T04:05:27.873Z,28.20
2022-08-17T04:08:02.059Z,27.92
2022-08-17T04:10:41.367Z,27.90
2022-08-17T04:13:24.226Z,27.10
2022-08-17T04:16:01.438Z,28.75
2022-08-17T04:18:39.523Z,25.40
2022-08-17T04:21:14.438Z,26.88
2022-08-17T04:23:50.327Z,27.63
2022-08-17T04:26:52.877Z,28.65
2022-08-17T04:29:18.780Z,26.88
2022-08-17T04:31:53.127Z,25.13
2022-08-17T04:34:28.500Z,28.95
2022-08-17T04:37:09.211Z,28.38
2022-08-17T04:40:04.361Z,32.10
2022-08-17T04:42:37.483Z,24.45
2022-08-17T04:45:12.079Z,28.02
2022-08-17T04:47:48.249Z,27.92
2022-08-17T04:50:23.776Z,29.60
2022-08-17T04:52:57.583Z,29.85
2022-08-17T04:55:32.666Z,27.63
2022-08-17T04:58:06.784Z,31.05
2022-08-17T05:00:42.239Z,29.30
2022-08-17T05:03:16.086Z,24.92
2022-08-17T05:05:53.613Z,27.40
2022-08-17T05:08:28.006Z,28.45
2022-08-17T05:11:01.712Z,27.27
2022-08-17T05:13:35.725Z,25.27
2022-08-17T05:16:11.829Z,23.95
2022-08-17T05:18:46.231Z,25.60
2022-08-17T05:21:23.319Z,25.27
2022-08-17T05:23:59.796Z,26.48
2022-08-17T05:26:33.167Z,26.83
2022-08-17T05:29:19.135Z,30.25
2022-08-17T05:31:52.992Z,29.42
2022-08-17T05:37:29.509Z,29.88
2022-08-17T05:40:03.644Z,24.88
2022-08-17T05:42:38.169Z,30.25
2022-08-17T05:45:13.243Z,26.05
2022-08-17T05:50:47.038Z,26.25
2022-08-17T05:53:32.018Z,31.45
2022-08-17T05:56:22.700Z,24.60
2022-08-17T05:59:13.226Z,27.42
2022-08-17T06:01:59.695Z,23.38
2022-08-17T06:04:44.084Z,25.98
2022-08-17T06:07:24.959Z,29.80
2022-08-17T06:10:09.576Z,29.15
2022-08-17T06:12:58.065Z,24.13
2022-08-17T06:15:36.120Z,26.80
2022-08-17T06:18:18.927Z,32.00
2022-08-17T06:20:57.502Z,25.67
2022-08-17T06:23:39.251Z,27.38
2022-08-17T06:26:21.871Z,25.75
2022-08-17T06:29:04.391Z,25.98
2022-08-17T06:31:44.494Z,26.60
2022-08-17T06:34:18.956Z,28.60
2022-08-17T06:37:00.321Z,27.25
2022-08-17T06:39:48.761Z,28.95
2022-08-17T06:43:02.751Z,27.35
2022-08-17T06:45:50.723Z,25.30
2022-08-17T06:48:28.699Z,24.55
2022-08-17T06:51:07.130Z,32.13
2022-08-17T06:53:47.312Z,27.50
2022-08-17T06:56:52.987Z,24.75
2022-08-17T06:59:54.955Z,23.08
2022-08-17T07:02:52.317Z,24.67
2022-08-17T07:05:30.144Z,26.17
2022-08-17T07:08:12.877Z,25.30
2022-08-17T07:10:51.686Z,26.30
2022-08-17T07:13:38.951Z,27.33
2022-08-17T07:16:21.787Z,27.40
2022-08-17T07:18:58.179Z,28.60
2022-08-17T07:21:47.790Z,26.20
2022-08-17T07:24:41.511Z,22.98
2022-08-17T07:27:20.088Z,24.75
2022-08-17T07:29:58.663Z,24.92
2022-08-17T07:32:44.936Z,25.25
2022-08-17T07:35:37.690Z,26.05
2022-08-17T07:38:24.896Z,24.77
2022-08-17T07:41:10.116Z,24.63
2022-08-17T07:43:55.451Z,26.05
2022-08-17T07:46:46.801Z,25.17
2022-08-17T07:49:29.531Z,26.92
2022-08-17T07:52:48.114Z,27.25
2022-08-17T07:55:05.093Z,25.00
2022-08-17T07:57:46.686Z,27.02
2022-08-17T08:00:31.392Z,24.77
2022-08-17T08:03:17.275Z,28.75
2022-08-17T08:06:01.549Z,21.02
2022-08-17T08:08:45.461Z,24.50
2022-08-17T08:11:35.827Z,25.52
2022-08-17T08:14:31.185Z,28.30
2022-08-17T08:17:07.235Z,23.85
2022-08-17T08:19:43.853Z,26.00
2022-08-17T08:22:32.395Z,26.10
2022-08-17T08:25:20.107Z,24.85
2022-08-17T08:28:04.532Z,23.27
2022-08-17T08:30:45.474Z,21.88
2022-08-17T08:33:41.026Z,24.02
2022-08-17T08:37:14.574Z,22.15
2022-08-17T08:39:29.957Z,24.30
2022-08-17T08:42:12.284Z,25.02
2022-08-17T08:45:00.177Z,25.30
2022-08-17T08:47:57.868Z,23.02
2022-08-17T08:50:49.175Z,25.40
2022-08-17T08:53:31.915Z,25.95
2022-08-17T08:56:13.550Z,22.98
2022-08-17T08:58:56.574Z,27.52
2022-08-17T09:01:41.786Z,26.25
2022-08-17T09:05:02.603Z,26.60
2022-08-17T09:07:42.724Z,27.75
2022-08-17T09:10:27.781Z,27.08
2022-08-17T09:13:10.806Z,23.40
2022-08-17T09:15:52.598Z,25.20
2022-08-17T09:19:01.660Z,27.83
2022-08-17T09:21:33.934Z,23.75
2022-08-17T09:24:14.200Z,23.77
2022-08-17T09:27:01.821Z,25.85
2022-08-17T09:29:41.985Z,26.85
2022-08-17T09:32:23.680Z,26.35
2022-08-17T09:34:58.652Z,26.15
2022-08-17T09:37:38.199Z,25.20
2022-08-17T09:40:20.300Z,28.20
2022-08-17T09:42:57.727Z,25.95
2022-08-17T09:45:38.927Z,24.02
2022-08-17T09:48:19.348Z,30.10
2022-08-17T09:51:04.605Z,23.85
2022-08-17T09:53:44.555Z,26.27
2022-08-17T09:56:29.971Z,25.65
2022-08-17T09:59:21.708Z,28.70
2022-08-17T10:02:05.740Z,27.80
2022-08-17T10:04:46.561Z,26.05
2022-08-17T10:07:23.772Z,28.67
2022-08-17T10:10:10.824Z,26.13
2022-08-17T10:12:55.780Z,27.20
2022-08-17T10:15:42.685Z,29.77
2022-08-17T10:18:36.870Z,27.10
2022-08-17T10:21:30.351Z,28.40
2022-08-17T10:24:29.640Z,28.25
2022-08-17T10:27:05.859Z,27.95
2022-08-17T10:29:49.114Z,25.83
2022-08-17T10:32:37.580Z,26.45
2022-08-17T10:35:37.492Z,26.50
2022-08-17T10:38:39.847Z,26.98
2022-08-17T10:41:29.007Z,26.50
2022-08-17T10:44:40.457Z,29.90
2022-08-17T10:47:12.164Z,27.95
2022-08-17T10:49:50.770Z,25.38
2022-08-17T10:52:56.322Z,29.92
2022-08-17T10:55:31.759Z,27.85
2022-08-17T10:58:27.155Z,26.88
2022-08-17T11:01:05.058Z,29.40
2022-08-17T11:03:41.079Z,26.95
2022-08-17T11:06:24.962Z,32.05
2022-08-17T11:09:46.071Z,26.20
2022-08-17T11:12:38.696Z,30.83
2022-08-17T11:15:36.809Z,26.88
2022-08-17T11:18:34.552Z,24.38
2022-08-17T11:21:29.054Z,29.75
2022-08-17T11:24:34.996Z,29.85
2022-08-17T11:27:19.791Z,24.55
2022-08-17T11:30:02.226Z,27.75
2022-08-17T11:32:47.330Z,24.55
2022-08-17T11:35:42.177Z,24.83
2022-08-17T11:38:28.433Z,27.05
2022-08-17T11:41:25.172Z,32.60
2022-08-17T11:44:38.881Z,28.15
2022-08-17T11:47:38.065Z,28.38
2022-08-17T11:50:51.164Z,24.83
2022-08-17T11:54:30.667Z,26.08
2022-08-17T11:56:56.032Z,29.45
2022-08-17T12:00:04.422Z,23.95
2022-08-17T12:02:48.615Z,27.23
2022-08-17T12:05:37.668Z,25.45
2022-08-17T12:08:19.684Z,26.33
2022-08-17T12:11:12.774Z,27.38
2022-08-17T12:13:53.835Z,28.23
2022-08-17T12:16:29.669Z,28.27
2022-08-17T12:19:06.455Z,28.30
2022-08-17T12:21:50.326Z,25.13
2022-08-17T12:24:36.695Z,29.33
2022-08-17T12:27:14.615Z,31.58
2022-08-17T12:29:50.125Z,28.30
2022-08-17T12:32:27.857Z,25.85
2022-08-17T12:35:02.645Z,28.05
2022-08-17T12:37:39.438Z,30.63
2022-08-17T12:40:24.911Z,33.35
2022-08-17T12:43:05.401Z,30.20
2022-08-17T12:45:42.214Z,28.48
2022-08-17T12:48:27.266Z,28.23
2022-08-17T12:51:09.156Z,29.75
2022-08-17T12:53:47.139Z,28.73
2022-08-17T12:56:22.601Z,32.20
2022-08-17T12:58:58.107Z,31.92
2022-08-17T13:01:32.031Z,28.60
2022-08-17T13:04:09.162Z,30.05
2022-08-17T13:06:50.485Z,28.48
2022-08-17T13:09:35.700Z,31.20
2022-08-17T13:12:16.435Z,38.78
2022-08-17T13:14:52.310Z,35.38
2022-08-17T13:17:36.038Z,32.97
2022-08-17T13:20:21.779Z,27.77
2022-08-17T13:23:01.284Z,32.42
2022-08-17T13:25:37.447Z,28.50
2022-08-17T13:28:30.710Z,28.45
2022-08-17T13:31:49.184Z,27.65
2022-08-17T13:35:07.801Z,28.38
2022-08-17T13:37:40.590Z,28.70
2022-08-17T13:40:36.121Z,30.30
2022-08-17T13:43:11.770Z,29.27
2022-08-17T13:45:55.737Z,29.67
2022-08-17T13:48:34.171Z,34.38
2022-08-17T13:51:27.756Z,30.60
2022-08-17T13:54:13.631Z,33.15
2022-08-17T13:59:55.500Z,27.65
2022-08-17T14:02:31.777Z,30.52
2022-08-17T14:05:07.844Z,31.88
2022-08-17T14:07:46.529Z,29.67
2022-08-17T14:10:25.413Z,35.25
2022-08-17T14:13:00.961Z,33.30
2022-08-17T14:15:54.965Z,33.15
2022-08-17T14:18:55.549Z,35.28
2022-08-17T14:21:28.625Z,37.03
2022-08-17T14:24:29.456Z,32.95
2022-08-17T14:27:07.719Z,33.85
2022-08-17T14:29:49.698Z,32.85
2022-08-17T14:32:25.456Z,32.28
2022-08-17T14:35:01.204Z,33.33
2022-08-17T14:37:41.289Z,34.38
2022-08-17T14:40:18.276Z,29.85
2022-08-17T14:42:56.317Z,31.75
2022-08-17T14:45:32.656Z,36.60
2022-08-17T14:48:15.061Z,34.15
2022-08-17T14:50:49.528Z,32.75
2022-08-17T14:53:25.057Z,33.72
2022-08-17T14:56:00.752Z,35.25
2022-08-17T14:58:36.848Z,34.75
2022-08-17T15:01:15.978Z,38.47
2022-08-17T15:03:51.812Z,45.97
2022-08-17T15:06:27.506Z,40.00
2022-08-17T15:09:06.170Z,36.85
2022-08-17T15:11:42.564Z,42.30
2022-08-17T15:14:20.074Z,32.47
2022-08-17T15:16:59.196Z,32.90
2022-08-17T15:19:34.737Z,26.42
2022-08-17T15:22:09.307Z,26.63
2022-08-17T15:24:44.239Z,32.85
2022-08-17T15:27:31.526Z,29.80
2022-08-17T15:30:14.754Z,27.17
2022-08-17T15:32:54.916Z,28.15
2022-08-17T15:35:32.771Z,26.40
2022-08-17T15:38:12.047Z,27.23
2022-08-17T15:40:49.406Z,26.85
2022-08-17T15:43:27.829Z,29.70
2022-08-17T15:46:08.920Z,32.33
2022-08-17T15:48:45.701Z,27.50
2022-08-17T15:51:21.973Z,26.58
2022-08-17T15:53:58.941Z,27.95
2022-08-17T15:56:35.754Z,32.97
2022-08-17T15:59:11.768Z,35.45
2022-08-17T16:03:13.819Z,37.47
2022-08-17T16:04:44.112Z,25.58
2022-08-17T16:07:24.373Z,30.02
2022-08-17T16:10:02.256Z,28.63
2022-08-17T16:12:40.500Z,31.05
2022-08-17T16:15:15.644Z,30.98
2022-08-17T16:17:53.386Z,37.53
2022-08-17T16:20:28.471Z,28.35
2022-08-17T16:23:06.211Z,25.40
2022-08-17T16:25:53.899Z,34.10
2022-08-17T16:28:36.039Z,24.83
2022-08-17T16:31:11.389Z,27.48
2022-08-17T16:33:58.436Z,26.25
2022-08-17T16:36:55.332Z,26.25
2022-08-17T16:39:32.768Z,28.60
2022-08-17T16:42:08.349Z,29.60
2022-08-17T16:44:44.031Z,29.35
2022-08-17T16:47:21.032Z,28.17
2022-08-17T16:49:58.364Z,27.73
2022-08-17T16:52:34.026Z,30.45
2022-08-17T16:55:13.366Z,28.67
2022-08-17T16:57:50.249Z,28.67
2022-08-17T17:00:27.065Z,31.55
2022-08-17T17:03:19.654Z,27.60
2022-08-17T17:06:06.642Z,27.60
2022-08-17T17:08:48.704Z,27.58
2022-08-17T17:11:33.257Z,28.10
2022-08-17T17:14:10.876Z,28.73
2022-08-17T17:16:49.645Z,26.75
2022-08-17T17:19:35.258Z,28.02
2022-08-17T17:22:20.255Z,32.13
2022-08-17T17:25:05.525Z,27.25
2022-08-17T17:27:48.765Z,29.70
2022-08-17T17:33:19.229Z,27.85
2022-08-17T17:35:55.825Z,34.40
2022-08-17T17:38:36.368Z,44.13
2022-08-17T17:41:16.763Z,45.25
2022-08-17T17:43:53.999Z,55.28
2022-08-17T17:46:33.262Z,49.90
2022-08-17T17:49:08.119Z,44.42
2022-08-17T17:52:09.202Z,38.55
2022-08-17T17:54:57.709Z,35.75
2022-08-17T17:57:45.417Z,38.42
2022-08-17T18:00:23.496Z,40.20
2022-08-17T18:03:13.714Z,39.67
2022-08-17T18:06:10.392Z,38.42
2022-08-17T18:08:56.489Z,38.15
2022-08-17T18:11:50.777Z,39.03
2022-08-17T18:14:35.773Z,33.40
2022-08-17T18:17:10.586Z,40.80
2022-08-17T18:19:45.067Z,40.70
2022-08-17T18:22:20.992Z,39.17
2022-08-17T18:25:03.835Z,43.85
2022-08-17T18:27:51.015Z,43.22
2022-08-17T18:30:31.372Z,54.83
2022-08-17T18:33:24.963Z,48.85
2022-08-17T18:36:01.411Z,54.95
2022-08-17T18:38:36.820Z,50.40
2022-08-17T18:41:25.230Z,52.35
2022-08-17T18:44:08.045Z,49.40
2022-08-17T18:46:42.295Z,45.80
2022-08-17T18:49:32.848Z,46.42
2022-08-17T18:52:19.839Z,46.22
2022-08-17T18:55:12.328Z,46.78
2022-08-17T18:57:51.084Z,47.88
2022-08-17T19:00:39.789Z,49.65
2022-08-17T19:03:27.702Z,49.72
2022-08-17T19:06:32.320Z,52.42
2022-08-17T19:09:06.529Z,51.88
2022-08-17T19:11:41.056Z,49.10
2022-08-17T19:14:21.036Z,51.85
2022-08-17T19:16:58.732Z,51.35
2022-08-17T19:19:39.526Z,46.80
2022-08-17T19:22:30.672Z,51.55
2022-08-17T19:25:17.207Z,55.97
2022-08-17T19:27:57.769Z,53.65
2022-08-17T19:30:32.062Z,53.03
2022-08-17T19:33:07.859Z,50.90
2022-08-17T19:35:53.188Z,56.33
2022-08-17T19:38:37.719Z,52.97
2022-08-17T19:41:20.152Z,52.58
2022-08-17T19:44:14.214Z,52.55
2022-08-17T19:47:00.877Z,52.42
2022-08-17T19:49:48.046Z,58.53
2022-08-17T19:52:50.825Z,52.05
2022-08-17T19:55:34.388Z,55.70
2022-08-17T19:58:18.000Z,48.40
2022-08-17T20:00:55.941Z,52.13
2022-08-17T20:03:36.407Z,55.17
2022-08-17T20:06:16.702Z,47.70
2022-08-17T20:08:59.126Z,42.38
2022-08-17T20:11:38.371Z,49.08
2022-08-17T20:14:16.729Z,42.92
2022-08-17T20:16:50.292Z,44.03
2022-08-17T20:19:31.854Z,40.05
2022-08-17T20:22:13.844Z,43.25
2022-08-17T20:24:52.270Z,42.67
2022-08-17T20:27:32.057Z,40.78
2022-08-17T20:30:16.693Z,37.78
2022-08-17T20:32:58.625Z,37.97
2022-08-17T20:35:33.710Z,35.92
2022-08-17T20:38:12.176Z,34.30
2022-08-17T20:41:16.659Z,35.75
2022-08-17T20:44:07.806Z,36.88
2022-08-17T20:46:59.395Z,36.40
2022-08-17T20:49:43.911Z,34.53
2022-08-17T20:53:01.451Z,35.58
2022-08-17T20:55:59.496Z,33.65
2022-08-17T20:58:51.115Z,38.75
2022-08-17T21:01:41.165Z,33.72
2022-08-17T21:04:48.623Z,38.38
2022-08-17T21:07:33.144Z,32.80
2022-08-17T21:10:21.097Z,37.28
2022-08-17T21:13:03.075Z,41.75
2022-08-17T21:15:43.047Z,39.70
2022-08-17T21:18:21.381Z,44.38
2022-08-17T21:21:12.985Z,40.95
2022-08-17T21:24:09.518Z,41.08
2022-08-17T21:27:04.314Z,38.38
2022-08-17T21:29:54.383Z,34.47
2022-08-17T21:32:35.877Z,35.17
2022-08-17T21:35:58.758Z,29.60
2022-08-17T21:38:41.287Z,27.00
2022-08-17T21:41:25.275Z,27.10
2022-08-17T21:44:05.020Z,24.42
2022-08-17T21:46:46.579Z,32.15
2022-08-17T21:49:22.057Z,28.80
2022-08-17T21:52:03.639Z,23.17
2022-08-17T21:54:40.040Z,22.08
2022-08-17T21:57:23.800Z,22.67
2022-08-17T22:00:02.323Z,21.02
2022-08-17T22:02:45.732Z,23.70
2022-08-17T22:05:20.334Z,21.52
2022-08-17T22:08:03.658Z,22.55
2022-08-17T22:10:41.164Z,19.73
2022-08-17T22:13:17.508Z,20.35
2022-08-17T22:15:54.431Z,22.27
2022-08-17T22:18:31.381Z,19.92
2022-08-17T22:21:08.701Z,21.90
2022-08-17T22:24:00.193Z,20.15
2022-08-17T22:27:04.343Z,24.30
2022-08-17T22:29:57.377Z,22.08
2022-08-17T22:32:44.364Z,23.55
2022-08-17T22:35:48.999Z,24.05
2022-08-17T22:38:40.667Z,24.17
2022-08-17T22:41:35.672Z,22.48
2022-08-17T22:44:30.787Z,23.80
2022-08-17T22:47:11.496Z,20.00
2022-08-17T22:49:54.525Z,23.10
2022-08-17T22:52:37.210Z,19.48
2022-08-17T22:55:35.602Z,22.52
2022-08-17T22:58:32.327Z,21.35
2022-08-17T23:01:28.307Z,25.98
2022-08-17T23:04:04.425Z,23.20
2022-08-17T23:06:39.596Z,20.50
2022-08-17T23:09:15.305Z,21.13
2022-08-17T23:11:50.959Z,22.02
2022-08-17T23:14:25.620Z,17.35
2022-08-17T23:16:58.678Z,18.73
2022-08-17T23:19:34.204Z,21.15
2022-08-17T23:22:10.732Z,22.02
2022-08-17T23:24:52.532Z,21.92
2022-08-17T23:27:30.728Z,24.40
2022-08-17T23:30:04.378Z,21.05
2022-08-17T23:32:38.460Z,19.55
2022-08-17T23:35:40.635Z,22.38
2022-08-17T23:38:15.883Z,23.13
2022-08-17T23:40:51.718Z,20.15
2022-08-17T23:43:28.278Z,22.25
2022-08-17T23:46:05.127Z,18.45
2022-08-17T23:48:38.835Z,19.27
2022-08-17T23:51:18.079Z,23.45
2022-08-17T23:53:55.812Z,18.13
2022-08-17T23:56:30.758Z,21.50
2022-08-17T23:59:04.386Z,20.67
